createdAt,value
2023-05-04T00:00:10.809Z,7.55
2023-05-04T00:02:56.948Z,7.56
2023-05-04T00:05:23.251Z,7.53
2023-05-04T00:07:49.387Z,7.53
2023-05-04T00:10:15.540Z,7.53
2023-05-04T00:12:41.817Z,7.55
2023-05-04T00:15:07.976Z,7.55
2023-05-04T00:17:34.314Z,7.55
2023-05-04T00:20:00.804Z,7.57
2023-05-04T00:22:26.967Z,7.55
2023-05-04T00:24:53.269Z,7.57
2023-05-04T00:27:19.547Z,7.56
2023-05-04T00:29:45.640Z,7.57
2023-05-04T00:32:11.790Z,7.57
2023-05-04T00:34:38.052Z,7.56
2023-05-04T00:37:04.164Z,7.55
2023-05-04T00:39:30.393Z,7.55
2023-05-04T00:41:56.455Z,7.53
2023-05-04T00:44:25.709Z,7.53
2023-05-04T00:46:52.446Z,7.54
2023-05-04T00:49:18.702Z,7.55
2023-05-04T00:51:44.863Z,7.55
2023-05-04T00:54:11.428Z,7.56
2023-05-04T00:56:41.516Z,7.58
2023-05-04T00:59:07.609Z,7.59
2023-05-04T01:01:33.896Z,7.57
2023-05-04T01:04:00.225Z,7.55
2023-05-04T01:06:26.480Z,7.55
2023-05-04T01:08:52.625Z,7.55
2023-05-04T01:11:19.066Z,7.57
2023-05-04T01:13:45.252Z,7.58
2023-05-04T01:16:11.493Z,7.59
2023-05-04T01:18:37.624Z,7.60
2023-05-04T01:21:03.748Z,7.60
2023-05-04T01:23:29.966Z,7.61
2023-05-04T01:25:56.152Z,7.59
2023-05-04T01:28:22.468Z,7.59
2023-05-04T01:30:48.741Z,7.58
2023-05-04T01:33:15.377Z,7.58
2023-05-04T01:35:41.495Z,7.58
2023-05-04T01:38:07.645Z,7.57
2023-05-04T01:40:33.734Z,7.57
2023-05-04T01:42:59.911Z,7.57
2023-05-04T01:45:26.344Z,7.57
2023-05-04T01:47:52.524Z,7.57
2023-05-04T01:50:18.697Z,7.55
2023-05-04T01:52:44.834Z,7.53
2023-05-04T01:55:11.055Z,7.53
2023-05-04T01:57:37.226Z,7.52
2023-05-04T02:00:03.628Z,7.52
2023-05-04T02:02:30.272Z,7.53
2023-05-04T02:04:56.466Z,7.54
2023-05-04T02:07:22.558Z,7.53
2023-05-04T02:09:48.653Z,7.53
2023-05-04T02:12:14.774Z,7.52
2023-05-04T02:14:40.937Z,7.51
2023-05-04T02:17:07.659Z,7.52
2023-05-04T02:19:33.761Z,7.53
2023-05-04T02:22:00.022Z,7.52
2023-05-04T02:24:26.168Z,7.51
2023-05-04T02:26:52.336Z,7.50
2023-05-04T02:29:18.673Z,7.51
2023-05-04T02:31:44.832Z,7.53
2023-05-04T02:34:11.003Z,7.54
2023-05-04T02:36:37.218Z,7.52
2023-05-04T02:39:03.379Z,7.54
2023-05-04T02:41:29.557Z,7.53
2023-05-04T02:43:55.685Z,7.53
2023-05-04T02:46:23.695Z,7.53
2023-05-04T02:48:49.922Z,7.53
2023-05-04T02:51:16.276Z,7.51
2023-05-04T02:53:42.425Z,7.48
2023-05-04T02:56:08.603Z,7.46
2023-05-04T02:58:34.791Z,7.44
2023-05-04T03:01:01.622Z,7.43
2023-05-04T03:03:27.847Z,7.45
2023-05-04T03:05:53.945Z,7.44
2023-05-04T03:08:20.043Z,7.47
2023-05-04T03:10:46.169Z,7.47
2023-05-04T03:13:12.434Z,7.47
2023-05-04T03:15:38.782Z,7.45
2023-05-04T03:18:04.956Z,7.46
2023-05-04T03:20:31.114Z,7.46
2023-05-04T03:22:57.193Z,7.45
2023-05-04T03:25:23.309Z,7.43
2023-05-04T03:27:49.420Z,7.39
2023-05-04T03:30:15.670Z,7.36
2023-05-04T03:32:41.887Z,7.33
2023-05-04T03:35:08.665Z,7.32
2023-05-04T03:37:36.335Z,7.29
2023-05-04T03:40:02.916Z,7.27
2023-05-04T03:42:29.459Z,7.25
2023-05-04T03:44:55.609Z,7.24
2023-05-04T03:47:21.706Z,7.23
2023-05-04T03:49:47.926Z,7.21
2023-05-04T03:52:14.001Z,7.22
2023-05-04T03:54:40.074Z,7.23
2023-05-04T03:57:06.168Z,7.26
2023-05-04T03:59:32.417Z,7.27
2023-05-04T04:01:58.592Z,7.27
2023-05-04T04:04:24.932Z,7.29
2023-05-04T04:06:51.141Z,7.27
2023-05-04T04:09:17.528Z,7.22
2023-05-04T04:11:43.785Z,7.16
2023-05-04T04:14:10.590Z,7.14
2023-05-04T04:16:36.854Z,7.13
2023-05-04T04:19:03.158Z,7.14
2023-05-04T04:21:29.246Z,7.14
2023-05-04T04:23:55.421Z,7.13
2023-05-04T04:26:21.975Z,7.14
2023-05-04T04:28:50.182Z,7.18
2023-05-04T04:31:16.641Z,7.21
2023-05-04T04:33:43.219Z,7.24
2023-05-04T04:36:10.525Z,7.28
2023-05-04T04:38:37.261Z,7.31
2023-05-04T04:41:03.680Z,7.36
2023-05-04T04:43:30.227Z,7.42
2023-05-04T04:45:56.390Z,7.48
2023-05-04T04:48:24.879Z,7.47
2023-05-04T04:50:51.417Z,7.49
2023-05-04T04:53:17.496Z,7.51
2023-05-04T04:55:43.664Z,7.56
2023-05-04T04:58:09.743Z,7.57
2023-05-04T05:00:35.900Z,7.58
2023-05-04T05:03:02.580Z,7.57
2023-05-04T05:05:31.031Z,7.58
2023-05-04T05:07:57.965Z,7.59
2023-05-04T05:10:24.203Z,7.59
2023-05-04T05:12:50.558Z,7.61
2023-05-04T05:15:16.825Z,7.65
2023-05-04T05:17:43.342Z,7.73
2023-05-04T05:20:10.620Z,7.84
2023-05-04T05:22:36.734Z,7.92
2023-05-04T05:25:03.835Z,7.99
2023-05-04T05:27:30.371Z,8.09
2023-05-04T05:29:56.752Z,8.16
2023-05-04T05:32:25.624Z,8.27
2023-05-04T05:34:51.795Z,8.32
2023-05-04T05:37:17.871Z,8.39
2023-05-04T05:39:44.211Z,8.52
2023-05-04T05:42:10.791Z,8.59
2023-05-04T05:44:37.086Z,8.65
2023-05-04T05:47:03.294Z,8.75
2023-05-04T05:49:29.391Z,8.82
2023-05-04T05:51:55.498Z,8.81
2023-05-04T05:54:24.449Z,8.86
2023-05-04T05:56:50.625Z,8.92
2023-05-04T05:59:16.714Z,9.01
2023-05-04T06:01:42.876Z,9.06
2023-05-04T06:04:10.302Z,9.08
2023-05-04T06:06:36.715Z,9.08
2023-05-04T06:09:02.966Z,9.05
2023-05-04T06:11:29.142Z,9.02
2023-05-04T06:13:55.283Z,9.01
2023-05-04T06:16:21.451Z,8.95
2023-05-04T06:18:47.577Z,8.82
2023-05-04T06:21:13.958Z,8.78
2023-05-04T06:23:40.080Z,8.79
2023-05-04T06:26:07.216Z,8.75
2023-05-04T06:28:33.365Z,8.72
2023-05-04T06:30:59.631Z,8.77
2023-05-04T06:33:26.217Z,8.86
2023-05-04T06:35:52.364Z,8.94
2023-05-04T06:38:18.682Z,9.00
2023-05-04T06:40:44.860Z,9.02
2023-05-04T06:43:11.117Z,9.08
2023-05-04T06:45:37.441Z,9.19
2023-05-04T06:48:03.902Z,9.23
2023-05-04T06:50:30.152Z,9.21
2023-05-04T06:52:56.515Z,9.24
2023-05-04T06:55:23.316Z,9.27
2023-05-04T06:57:49.427Z,9.26
2023-05-04T07:00:15.684Z,9.27
2023-05-04T07:02:41.827Z,9.32
2023-05-04T07:05:08.069Z,9.33
2023-05-04T07:07:34.193Z,9.34
2023-05-04T07:10:00.947Z,9.35
2023-05-04T07:12:27.176Z,9.35
2023-05-04T07:14:53.298Z,9.39
2023-05-04T07:17:21.189Z,9.39
2023-05-04T07:19:51.492Z,9.41
2023-05-04T07:22:17.724Z,9.48
2023-05-04T07:24:43.824Z,9.59
2023-05-04T07:27:10.905Z,9.70
2023-05-04T07:29:37.259Z,9.78
2023-05-04T07:32:03.392Z,9.81
2023-05-04T07:34:41.976Z,9.87
2023-05-04T07:37:11.575Z,9.93
2023-05-04T07:39:40.661Z,9.97
2023-05-04T07:42:07.017Z,9.95
2023-05-04T07:44:33.148Z,9.96
2023-05-04T07:46:59.257Z,9.97
2023-05-04T07:49:25.742Z,9.99
2023-05-04T07:51:51.930Z,10.01
2023-05-04T07:54:18.129Z,10.04
2023-05-04T07:56:44.747Z,10.24
2023-05-04T07:59:10.966Z,10.33
2023-05-04T08:01:37.146Z,10.32
2023-05-04T08:04:03.241Z,10.35
2023-05-04T08:06:29.468Z,10.45
2023-05-04T08:08:55.552Z,10.53
2023-05-04T08:11:21.899Z,10.60
2023-05-04T08:13:48.127Z,10.63
2023-05-04T08:16:14.249Z,10.69
2023-05-04T08:18:40.456Z,10.75
2023-05-04T08:21:06.858Z,10.82
2023-05-04T08:23:33.084Z,10.85
2023-05-04T08:25:59.246Z,10.84
2023-05-04T08:28:25.382Z,10.84
2023-05-04T08:30:51.466Z,10.86
2023-05-04T08:33:17.559Z,10.89
2023-05-04T08:35:43.910Z,10.93
2023-05-04T08:38:10.141Z,11.04
2023-05-04T08:40:36.338Z,11.07
2023-05-04T08:43:02.585Z,11.00
2023-05-04T08:45:28.751Z,11.00
2023-05-04T08:47:54.976Z,11.04
2023-05-04T08:50:21.404Z,11.08
2023-05-04T08:52:48.228Z,11.06
2023-05-04T08:55:16.329Z,11.02
2023-05-04T08:57:42.524Z,10.99
2023-05-04T09:00:08.655Z,10.95
2023-05-04T09:02:34.863Z,11.06
2023-05-04T09:05:01.015Z,11.10
2023-05-04T09:07:27.212Z,11.17
2023-05-04T09:09:53.375Z,11.35
2023-05-04T09:12:19.890Z,11.49
2023-05-04T09:14:45.986Z,11.51
2023-05-04T09:17:12.295Z,11.43
2023-05-04T09:19:43.184Z,11.40
2023-05-04T09:22:09.407Z,11.52
2023-05-04T09:24:35.505Z,11.68
2023-05-04T09:27:01.667Z,11.75
2023-05-04T09:29:27.788Z,11.78
2023-05-04T09:31:54.822Z,11.76
2023-05-04T09:34:21.637Z,11.75
2023-05-04T09:36:49.294Z,11.82
2023-05-04T09:39:15.398Z,11.82
2023-05-04T09:41:41.566Z,11.78
2023-05-04T09:44:08.021Z,11.82
2023-05-04T09:46:36.241Z,11.85
2023-05-04T09:49:03.150Z,11.91
2023-05-04T09:51:29.299Z,11.94
2023-05-04T09:53:55.409Z,11.96
2023-05-04T09:56:21.675Z,12.11
2023-05-04T09:58:48.074Z,12.25
2023-05-04T10:01:14.324Z,12.19
2023-05-04T10:03:40.488Z,12.26
2023-05-04T10:06:08.228Z,12.37
2023-05-04T10:08:34.385Z,12.47
2023-05-04T10:11:01.213Z,12.52
2023-05-04T10:13:27.483Z,12.49
2023-05-04T10:15:53.620Z,12.63
2023-05-04T10:18:20.439Z,12.71
2023-05-04T10:20:46.620Z,12.70
2023-05-04T10:23:12.956Z,12.73
2023-05-04T10:25:39.406Z,12.68
2023-05-04T10:28:05.623Z,12.60
2023-05-04T10:30:31.720Z,12.58
2023-05-04T10:32:58.162Z,12.57
2023-05-04T10:35:24.378Z,12.61
2023-05-04T10:37:50.589Z,12.60
2023-05-04T10:40:17.486Z,12.65
2023-05-04T10:42:43.593Z,12.73
2023-05-04T10:45:09.830Z,12.79
2023-05-04T10:47:36.447Z,12.69
2023-05-04T10:50:03.864Z,12.62
2023-05-04T10:52:30.216Z,12.64
2023-05-04T10:54:56.558Z,12.74
2023-05-04T10:57:22.696Z,12.75
2023-05-04T10:59:48.783Z,12.70
2023-05-04T11:02:15.085Z,12.79
2023-05-04T11:04:41.235Z,13.00
2023-05-04T11:07:08.029Z,13.30
2023-05-04T11:09:34.168Z,13.43
2023-05-04T11:12:00.490Z,13.40
2023-05-04T11:14:26.671Z,13.40
2023-05-04T11:16:52.833Z,13.41
2023-05-04T11:19:18.947Z,13.30
2023-05-04T11:21:45.289Z,13.17
2023-05-04T11:24:11.452Z,13.18
2023-05-04T11:26:37.597Z,13.05
2023-05-04T11:29:03.884Z,12.89
2023-05-04T11:31:30.262Z,12.72
2023-05-04T11:33:56.403Z,12.63
2023-05-04T11:36:22.773Z,12.65
2023-05-04T11:38:49.232Z,12.66
2023-05-04T11:41:15.334Z,12.76
2023-05-04T11:43:41.604Z,12.79
2023-05-04T11:46:07.816Z,12.86
2023-05-04T11:48:34.021Z,13.09
2023-05-04T11:51:00.145Z,13.37
2023-05-04T11:53:26.375Z,13.50
2023-05-04T11:55:53.810Z,13.51
2023-05-04T11:58:19.881Z,13.51
2023-05-04T12:00:46.547Z,13.55
2023-05-04T12:03:12.736Z,13.61
2023-05-04T12:05:39.298Z,13.66
2023-05-04T12:08:06.968Z,13.75
2023-05-04T12:10:34.555Z,13.84
2023-05-04T12:13:00.700Z,13.90
2023-05-04T12:15:26.956Z,13.89
2023-05-04T12:17:53.060Z,14.01
2023-05-04T12:20:19.267Z,14.07
2023-05-04T12:22:45.403Z,13.90
2023-05-04T12:25:11.576Z,13.66
2023-05-04T12:27:37.759Z,13.56
2023-05-04T12:30:03.993Z,13.57
2023-05-04T12:32:30.337Z,13.56
2023-05-04T12:34:56.436Z,13.61
2023-05-04T12:37:25.054Z,13.62
2023-05-04T12:39:51.484Z,13.57
2023-05-04T12:42:17.588Z,13.54
2023-05-04T12:44:43.732Z,13.60
2023-05-04T12:47:09.820Z,13.82
2023-05-04T12:49:36.071Z,13.90
2023-05-04T12:52:02.524Z,13.86
2023-05-04T12:54:28.636Z,13.81
2023-05-04T12:56:54.731Z,13.74
2023-05-04T12:59:21.900Z,13.74
2023-05-04T13:01:48.354Z,13.70
2023-05-04T13:04:14.469Z,13.64
2023-05-04T13:06:41.876Z,13.55
2023-05-04T13:09:08.159Z,13.51
2023-05-04T13:11:34.238Z,13.54
2023-05-04T13:14:00.576Z,13.58
2023-05-04T13:16:27.319Z,13.53
2023-05-04T13:18:53.769Z,13.48
2023-05-04T13:21:19.936Z,13.46
2023-05-04T13:23:46.017Z,13.48
2023-05-04T13:26:12.106Z,13.53
2023-05-04T13:28:39.314Z,13.56
2023-05-04T13:31:05.852Z,13.57
2023-05-04T13:33:32.359Z,13.57
2023-05-04T13:35:58.842Z,13.59
2023-05-04T13:38:25.595Z,13.72
2023-05-04T13:40:52.045Z,13.86
2023-05-04T13:43:18.326Z,13.94
2023-05-04T13:45:44.404Z,14.07
2023-05-04T13:48:10.567Z,14.18
2023-05-04T13:50:36.989Z,14.33
2023-05-04T13:53:03.115Z,14.43
2023-05-04T13:55:29.307Z,14.45
2023-05-04T13:57:55.481Z,14.39
2023-05-04T14:00:21.586Z,14.31
2023-05-04T14:02:47.780Z,14.22
2023-05-04T14:05:14.002Z,14.19
2023-05-04T14:07:40.172Z,14.10
2023-05-04T14:10:07.158Z,14.00
2023-05-04T14:12:34.159Z,13.89
2023-05-04T14:15:00.695Z,13.84
2023-05-04T14:17:26.803Z,13.84
2023-05-04T14:19:52.898Z,13.88
2023-05-04T14:22:19.050Z,13.92
2023-05-04T14:24:45.111Z,13.96
2023-05-04T14:27:11.663Z,14.02
2023-05-04T14:29:37.891Z,14.12
2023-05-04T14:32:04.084Z,14.29
2023-05-04T14:34:30.256Z,14.50
2023-05-04T14:36:56.922Z,14.70
2023-05-04T14:39:22.970Z,14.89
2023-05-04T14:41:51.674Z,15.09
2023-05-04T14:44:17.826Z,15.25
2023-05-04T14:46:43.954Z,15.28
2023-05-04T14:49:11.266Z,15.16
2023-05-04T14:51:42.512Z,14.99
2023-05-04T14:54:08.702Z,15.00
2023-05-04T14:56:34.811Z,14.95
2023-05-04T14:59:01.014Z,14.75
2023-05-04T15:01:27.292Z,14.54
2023-05-04T15:03:53.804Z,14.34
2023-05-04T15:06:20.118Z,14.18
2023-05-04T15:08:46.270Z,14.07
2023-05-04T15:11:16.691Z,13.98
2023-05-04T15:13:45.003Z,14.02
2023-05-04T15:16:11.163Z,14.08
2023-05-04T15:18:37.370Z,14.21
2023-05-04T15:21:03.435Z,14.36
2023-05-04T15:23:29.590Z,14.53
2023-05-04T15:25:55.896Z,14.60
2023-05-04T15:28:22.232Z,14.59
2023-05-04T15:30:48.399Z,14.51
2023-05-04T15:33:14.555Z,14.44
2023-05-04T15:35:40.643Z,14.48
2023-05-04T15:38:06.742Z,14.62
2023-05-04T15:40:32.923Z,14.65
2023-05-04T15:42:59.291Z,14.54
2023-05-04T15:45:25.353Z,14.39
2023-05-04T15:47:53.735Z,14.23
2023-05-04T15:50:20.035Z,14.13
2023-05-04T15:52:46.211Z,14.07
2023-05-04T15:55:24.431Z,14.07
2023-05-04T15:57:51.969Z,14.10
2023-05-04T16:00:18.369Z,14.08
2023-05-04T16:02:44.508Z,14.03
2023-05-04T16:05:10.717Z,14.04
2023-05-04T16:07:36.825Z,14.12
2023-05-04T16:10:03.005Z,14.09
2023-05-04T16:12:29.133Z,14.03
2023-05-04T16:14:55.378Z,14.04
2023-05-04T16:17:21.464Z,14.05
2023-05-04T16:19:47.606Z,14.07
2023-05-04T16:22:13.769Z,14.02
2023-05-04T16:24:39.902Z,14.00
2023-05-04T16:27:06.099Z,13.97
2023-05-04T16:29:32.244Z,13.96
2023-05-04T16:31:58.427Z,13.91
2023-05-04T16:34:24.649Z,13.80
2023-05-04T16:36:51.042Z,13.65
2023-05-04T16:39:18.031Z,13.53
2023-05-04T16:41:46.020Z,13.45
2023-05-04T16:44:12.263Z,13.45
2023-05-04T16:46:38.545Z,13.52
2023-05-04T16:49:04.689Z,13.49
2023-05-04T16:51:31.199Z,13.43
2023-05-04T16:53:57.429Z,13.43
2023-05-04T16:56:23.655Z,13.49
2023-05-04T16:58:49.889Z,13.50
2023-05-04T17:01:16.026Z,13.44
2023-05-04T17:03:42.274Z,13.30
2023-05-04T17:06:08.701Z,13.16
2023-05-04T17:08:35.197Z,13.09
2023-05-04T17:11:01.263Z,13.02
2023-05-04T17:13:27.496Z,12.92
2023-05-04T17:15:53.637Z,12.82
2023-05-04T17:18:19.748Z,12.76
2023-05-04T17:20:46.010Z,12.66
2023-05-04T17:23:12.084Z,12.53
2023-05-04T17:25:38.170Z,12.45
2023-05-04T17:28:04.308Z,12.36
2023-05-04T17:30:30.640Z,12.24
2023-05-04T17:32:56.767Z,12.19
2023-05-04T17:35:26.022Z,12.15
2023-05-04T17:37:55.202Z,12.05
2023-05-04T17:40:23.136Z,11.98
2023-05-04T17:42:49.450Z,11.92
2023-05-04T17:45:16.736Z,11.88
2023-05-04T17:47:45.552Z,11.83
2023-05-04T17:50:11.971Z,11.78
2023-05-04T17:52:38.300Z,11.70
2023-05-04T17:55:04.469Z,11.65
2023-05-04T17:57:30.778Z,11.59
2023-05-04T17:59:57.055Z,11.53
2023-05-04T18:02:23.300Z,11.51
2023-05-04T18:04:49.892Z,11.44
2023-05-04T18:07:16.184Z,11.37
2023-05-04T18:09:42.549Z,11.30
2023-05-04T18:12:08.810Z,11.20
2023-05-04T18:14:34.985Z,11.11
2023-05-04T18:17:01.222Z,11.00
2023-05-04T18:19:27.751Z,10.87
2023-05-04T18:21:54.247Z,10.79
2023-05-04T18:24:20.323Z,10.78
2023-05-04T18:26:47.677Z,10.79
2023-05-04T18:31:43.915Z,10.67
2023-05-04T18:34:10.211Z,10.60
2023-05-04T18:36:36.490Z,10.52
2023-05-04T18:39:03.386Z,10.46
2023-05-04T18:41:29.557Z,10.41
2023-05-04T18:43:55.714Z,10.35
2023-05-04T18:46:22.558Z,10.23
2023-05-04T18:48:49.540Z,10.17
2023-05-04T18:51:15.724Z,10.16
2023-05-04T18:53:41.876Z,10.07
2023-05-04T18:56:08.171Z,10.04
2023-05-04T18:58:34.734Z,9.96
2023-05-04T19:01:00.928Z,9.79
2023-05-04T19:03:27.562Z,9.64
2023-05-04T19:05:53.881Z,9.53
2023-05-04T19:08:20.102Z,9.46
2023-05-04T19:10:46.285Z,9.41
2023-05-04T19:13:12.673Z,9.39
2023-05-04T19:15:39.049Z,9.36
2023-05-04T19:18:05.217Z,9.33
2023-05-04T19:20:31.319Z,9.28
2023-05-04T19:22:57.465Z,9.21
2023-05-04T19:25:34.158Z,9.15
2023-05-04T19:28:01.659Z,9.11
2023-05-04T19:30:27.861Z,9.09
2023-05-04T19:32:54.023Z,9.07
2023-05-04T19:35:20.758Z,9.04
2023-05-04T19:37:47.382Z,9.03
2023-05-04T19:40:13.456Z,8.97
2023-05-04T19:42:45.296Z,8.90
2023-05-04T19:45:11.399Z,8.80
2023-05-04T19:47:38.062Z,8.67
2023-05-04T19:50:04.270Z,8.56
2023-05-04T19:52:30.431Z,8.46
2023-05-04T19:54:56.524Z,8.42
2023-05-04T19:57:22.628Z,8.36
2023-05-04T19:59:49.051Z,8.32
2023-05-04T20:02:15.435Z,8.26
2023-05-04T20:04:41.608Z,8.18
2023-05-04T20:07:07.813Z,8.13
2023-05-04T20:09:33.859Z,8.06
2023-05-04T20:11:59.961Z,8.04
2023-05-04T20:14:26.039Z,8.01
2023-05-04T20:16:52.182Z,7.98
2023-05-04T20:19:19.034Z,7.90
2023-05-04T20:21:46.794Z,7.83
2023-05-04T20:24:15.173Z,7.83
2023-05-04T20:26:43.014Z,7.82
2023-05-04T20:29:13.559Z,7.76
2023-05-04T20:31:40.646Z,7.69
2023-05-04T20:34:06.955Z,7.64
2023-05-04T20:36:33.771Z,7.63
2023-05-04T20:39:01.781Z,7.63
2023-05-04T20:41:27.982Z,7.59
2023-05-04T20:43:54.068Z,7.50
2023-05-04T20:46:20.369Z,7.41
2023-05-04T20:48:46.606Z,7.27
2023-05-04T20:51:14.484Z,7.18
2023-05-04T20:53:41.775Z,7.03
2023-05-04T20:56:07.841Z,6.86
2023-05-04T20:58:34.120Z,6.78
2023-05-04T21:01:00.337Z,6.74
2023-05-04T21:03:26.500Z,6.71
2023-05-04T21:05:52.812Z,6.70
2023-05-04T21:08:18.902Z,6.70
2023-05-04T21:10:45.134Z,6.66
2023-05-04T21:13:11.382Z,6.64
2023-05-04T21:15:38.012Z,6.60
2023-05-04T21:18:04.195Z,6.53
2023-05-04T21:20:30.320Z,6.45
2023-05-04T21:22:56.548Z,6.36
2023-05-04T21:25:22.647Z,6.31
2023-05-04T21:27:48.796Z,6.22
2023-05-04T21:30:14.890Z,6.10
2023-05-04T21:32:41.127Z,6.07
2023-05-04T21:35:07.441Z,6.09
2023-05-04T21:37:33.562Z,6.13
2023-05-04T21:40:00.464Z,6.20
2023-05-04T21:42:26.621Z,6.28
2023-05-04T21:44:53.325Z,6.35
2023-05-04T21:47:22.294Z,6.39
2023-05-04T21:49:48.698Z,6.42
2023-05-04T21:52:14.881Z,6.43
2023-05-04T21:54:41.266Z,6.37
2023-05-04T21:57:07.595Z,6.29
2023-05-04T21:59:33.655Z,6.22
2023-05-04T22:02:00.876Z,6.16
2023-05-04T22:04:26.989Z,6.10
2023-05-04T22:06:53.072Z,6.11
2023-05-04T22:09:19.190Z,6.10
2023-05-04T22:11:45.773Z,6.05
2023-05-04T22:14:12.025Z,6.04
2023-05-04T22:16:38.191Z,6.07
2023-05-04T22:19:04.488Z,6.10
2023-05-04T22:21:31.788Z,6.07
2023-05-04T22:23:57.875Z,6.05
2023-05-04T22:26:24.023Z,6.01
2023-05-04T22:28:50.269Z,5.98
2023-05-04T22:31:16.501Z,5.95
2023-05-04T22:33:42.734Z,5.93
2023-05-04T22:36:08.856Z,5.91
2023-05-04T22:38:34.995Z,5.89
2023-05-04T22:41:01.687Z,5.86
2023-05-04T22:43:27.755Z,5.83
2023-05-04T22:45:53.924Z,5.83
2023-05-04T22:48:20.119Z,5.85
2023-05-04T22:50:47.794Z,5.87
2023-05-04T22:53:14.030Z,5.88
2023-05-04T22:55:40.168Z,5.87
2023-05-04T22:58:07.265Z,5.88
2023-05-04T23:00:33.321Z,5.85
2023-05-04T23:02:59.742Z,5.80
2023-05-04T23:05:26.122Z,5.66
2023-05-04T23:07:52.247Z,5.43
2023-05-04T23:10:18.344Z,5.23
2023-05-04T23:12:44.437Z,5.13
2023-05-04T23:15:10.545Z,5.07
2023-05-04T23:17:38.334Z,5.07
2023-05-04T23:20:04.410Z,5.08
2023-05-04T23:22:30.533Z,5.06
2023-05-04T23:24:57.268Z,5.05
2023-05-04T23:27:23.484Z,5.05
2023-05-04T23:29:49.637Z,5.05
2023-05-04T23:32:15.952Z,5.02
2023-05-04T23:34:42.170Z,4.97
2023-05-04T23:37:08.305Z,4.91
2023-05-04T23:39:34.415Z,4.84
2023-05-04T23:42:00.491Z,4.83
2023-05-04T23:44:26.598Z,4.76
2023-05-04T23:46:52.768Z,4.75
2023-05-04T23:49:18.947Z,4.71
2023-05-04T23:51:45.234Z,4.68
2023-05-04T23:54:11.384Z,4.68
2023-05-04T23:56:37.560Z,4.62
2023-05-04T23:59:03.655Z,4.60
